KBKE/BKE METAR and TAF weather

Enter ICAO airport designator
Station Type Date Time Source
KBKE METAR 2019/10/18 06:53 UTC NOAA

KBKE 180653Z AUTO VRB03KT 10SM BKN110 07/01 A2984 RMK AO2 SLP106 T00720011


Station Type Date Time Source
KBKE Decoded METAR 2019/10/18 06:53 UTC NOAA

BAKER MUNICIPAL AIRPORT, OR, United States (KBKE) 44-50N 117-49W 1024M
Oct 18, 2019 - 02:53 AM EDT / 2019.10.18 0653 UTC
Wind: Variable at 3 MPH (3 KT):0
Visibility: 10 mile(s):0
Sky conditions: mostly cloudy
Temperature: 45.0 F (7.2 C)
Dew Point: 34.0 F (1.1 C)
Relative Humidity: 65%
Pressure (altimeter): 29.84 in. Hg (1010 hPa)
ob: KBKE 180653Z AUTO VRB03KT 10SM BKN110 07/01 A2984 RMK AO2 SLP106 T00720011
cycle: 7

Station Type Date Time Source
KBKE TAF 2019/10/18 06:22 UTC NOAA

TAF KBKE 180520Z 1806/1906 VRB04KT P6SM SCT050 OVC200
FM180900 VRB06KT P6SM VCSH BKN050 OVC100
FM181800 33010KT P6SM SCT050 BKN100
FM190100 VRB05KT P6SM SCT050 BKN090

Example: see airport list